Time;durP1;ratioP1;P1;durP2;ratioP2;P2;SDS_P1;SDS_P2;PMS_P1;PMS_P2;Temp;Humidity;BMP_temperature;BMP_pressure;BME280_temperature;BME280_humidity;BME280_pressure;Samples;Min_cycle;Max_cycle;Signal;HPM_P1;HPM_P2
2023/08/01 00:00:58;;;;;;;11.27;4.15;;;;;;;;;;5035664;28;20056;-78
2023/08/01 00:03:24;;;;;;;7.40;4.03;;;;;;;;;;5035256;28;20046;-78
2023/08/01 00:05:50;;;;;;;7.40;3.30;;;;;;;;;;5035305;28;20060;-78
2023/08/01 00:08:16;;;;;;;6.68;3.50;;;;;;;;;;5035414;28;20092;-78
2023/08/01 00:10:42;;;;;;;6.22;3.33;;;;;;;;;;5035431;28;20094;-78
2023/08/01 00:13:08;;;;;;;6.78;3.78;;;;;;;;;;5050157;28;20072;-78
2023/08/01 00:15:35;;;;;;;7.85;3.80;;;;;;;;;;5037681;28;20531;-78
2023/08/01 00:18:01;;;;;;;6.97;3.60;;;;;;;;;;5035654;28;20129;-78
2023/08/01 00:20:27;;;;;;;7.55;3.88;;;;;;;;;;5053773;28;20337;-78
2023/08/01 00:22:53;;;;;;;9.32;4.05;;;;;;;;;;5055107;28;20048;-78
2023/08/01 00:25:20;;;;;;;10.35;3.92;;;;;;;;;;5039550;28;20052;-78
2023/08/01 00:27:46;;;;;;;7.43;4.10;;;;;;;;;;5035448;28;20068;-78
2023/08/01 00:30:12;;;;;;;9.25;4.00;;;;;;;;;;5042754;28;20407;-78
2023/08/01 00:32:38;;;;;;;14.90;3.90;;;;;;;;;;5054625;28;20432;-78
2023/08/01 00:35:05;;;;;;;8.27;3.70;;;;;;;;;;5055148;28;20529;-78
2023/08/01 00:37:31;;;;;;;13.25;4.13;;;;;;;;;;5054531;28;20049;-78
2023/08/01 00:39:57;;;;;;;9.55;4.32;;;;;;;;;;5041830;28;20049;-78
2023/08/01 00:42:23;;;;;;;9.93;4.28;;;;;;;;;;5035619;28;20041;-78
2023/08/01 00:44:51;;;;;;;6.70;4.10;;;;;;;;;;5054276;28;20094;-78
2023/08/01 00:47:17;;;;;;;11.32;4.55;;;;;;;;;;5054380;28;20056;-78
2023/08/01 00:49:43;;;;;;;10.25;4.38;;;;;;;;;;5055018;28;20045;-78
2023/08/01 00:52:09;;;;;;;8.55;4.25;;;;;;;;;;5051992;28;20047;-78
2023/08/01 00:54:36;;;;;;;11.80;4.70;;;;;;;;;;5040601;28;20053;-78
2023/08/01 00:57:05;;;;;;;10.48;4.50;;;;;;;;;;5034295;28;20049;-78
2023/08/01 00:59:31;;;;;;;11.50;4.32;;;;;;;;;;5032954;28;20460;-78
2023/08/01 01:01:57;;;;;;;9.88;4.50;;;;;;;;;;5034631;28;20096;-78
2023/08/01 01:04:24;;;;;;;9.32;4.65;;;;;;;;;;5034216;28;20518;-78
2023/08/01 01:07:09;;;;;;;9.60;4.18;;;;;;;;;;5034637;28;20107;-78
2023/08/01 01:09:35;;;;;;;6.65;3.80;;;;;;;;;;5043129;28;20049;-78
2023/08/01 01:12:01;;;;;;;11.77;4.85;;;;;;;;;;5041688;28;20068;-78
2023/08/01 01:14:28;;;;;;;8.68;4.20;;;;;;;;;;5053770;28;20495;-78
2023/08/01 01:16:54;;;;;;;9.98;4.13;;;;;;;;;;5048842;28;20517;-78
2023/08/01 01:19:20;;;;;;;11.90;4.38;;;;;;;;;;5037883;28;20094;-78
2023/08/01 01:21:48;;;;;;;11.05;4.93;;;;;;;;;;5054007;28;20120;-78
2023/08/01 01:24:15;;;;;;;10.07;4.50;;;;;;;;;;5053665;28;20051;-78
2023/08/01 01:26:42;;;;;;;9.35;4.30;;;;;;;;;;5052555;28;20037;-78
2023/08/01 01:29:08;;;;;;;11.10;4.45;;;;;;;;;;5053475;28;20037;-78
2023/08/01 01:31:34;;;;;;;10.65;4.63;;;;;;;;;;5053684;28;20518;-78
2023/08/01 01:34:01;;;;;;;7.85;3.97;;;;;;;;;;5053115;28;20072;-78
2023/08/01 01:36:27;;;;;;;9.82;4.25;;;;;;;;;;5047479;28;20499;-78
2023/08/01 01:38:53;;;;;;;8.85;4.47;;;;;;;;;;5034105;28;20069;-78
2023/08/01 01:41:19;;;;;;;9.00;4.72;;;;;;;;;;5054302;28;20048;-78
2023/08/01 01:43:45;;;;;;;10.38;4.50;;;;;;;;;;5053603;28;20052;-78
2023/08/01 01:46:11;;;;;;;8.27;4.88;;;;;;;;;;5053611;28;20094;-78
2023/08/01 01:48:38;;;;;;;10.23;4.78;;;;;;;;;;5053020;28;20072;-78
2023/08/01 01:51:04;;;;;;;12.80;5.10;;;;;;;;;;5035872;28;20140;-78
2023/08/01 01:53:30;;;;;;;7.53;4.30;;;;;;;;;;5053718;28;20077;-78
2023/08/01 01:55:56;;;;;;;12.32;5.13;;;;;;;;;;5053528;28;20045;-78
2023/08/01 01:58:22;;;;;;;10.30;4.53;;;;;;;;;;5053541;28;20044;-78
2023/08/01 02:00:49;;;;;;;10.77;4.85;;;;;;;;;;5053038;28;20509;-78
2023/08/01 02:03:15;;;;;;;9.52;4.88;;;;;;;;;;5053333;28;20059;-78
2023/08/01 02:05:41;;;;;;;8.57;4.72;;;;;;;;;;5053667;28;20037;-78
2023/08/01 02:08:08;;;;;;;10.30;4.88;;;;;;;;;;5052790;28;20045;-78
2023/08/01 02:10:34;;;;;;;8.55;4.55;;;;;;;;;;5051661;28;20049;-78
2023/08/01 02:13:00;;;;;;;12.60;5.40;;;;;;;;;;5052983;28;20037;-78
2023/08/01 02:15:26;;;;;;;11.45;5.03;;;;;;;;;;5053362;28;20052;-78
2023/08/01 02:17:52;;;;;;;10.68;4.47;;;;;;;;;;5043250;28;20044;-78
2023/08/01 02:20:18;;;;;;;6.95;5.07;;;;;;;;;;5052811;28;20082;-77
2023/08/01 02:22:44;;;;;;;8.95;4.78;;;;;;;;;;5053360;28;20099;-77
2023/08/01 02:25:11;;;;;;;10.20;4.38;;;;;;;;;;5053043;28;20055;-77
2023/08/01 02:27:37;;;;;;;10.80;5.05;;;;;;;;;;5052834;28;20049;-77
2023/08/01 02:30:05;;;;;;;8.45;4.65;;;;;;;;;;5052639;28;20434;-77
2023/08/01 02:32:31;;;;;;;8.48;5.00;;;;;;;;;;5037682;28;20049;-78
2023/08/01 02:34:57;;;;;;;14.25;5.10;;;;;;;;;;5039738;28;20046;-78
2023/08/01 02:37:23;;;;;;;11.13;5.55;;;;;;;;;;5052245;28;20135;-77
2023/08/01 02:39:49;;;;;;;9.73;4.63;;;;;;;;;;5050049;28;20069;-77
2023/08/01 02:42:15;;;;;;;8.63;4.15;;;;;;;;;;5052634;28;20045;-77
2023/08/01 02:44:42;;;;;;;6.95;3.50;;;;;;;;;;5035432;28;20088;-77
2023/08/01 02:47:08;;;;;;;10.15;4.10;;;;;;;;;;5049478;28;20083;-77
2023/08/01 02:49:34;;;;;;;8.20;3.47;;;;;;;;;;5044470;28;20049;-77
2023/08/01 02:52:00;;;;;;;8.60;3.70;;;;;;;;;;5032507;28;20057;-77
2023/08/01 02:54:26;;;;;;;7.55;3.20;;;;;;;;;;5032704;28;20045;-77
2023/08/01 02:56:52;;;;;;;6.50;3.45;;;;;;;;;;5033017;28;20117;-77
2023/08/01 02:59:18;;;;;;;13.95;4.03;;;;;;;;;;5033151;28;20041;-77
2023/08/01 03:01:44;;;;;;;8.70;3.55;;;;;;;;;;5045533;28;20049;-77
2023/08/01 03:04:11;;;;;;;10.45;3.50;;;;;;;;;;5036782;28;20147;-77
2023/08/01 03:06:37;;;;;;;10.30;3.83;;;;;;;;;;5036974;28;20111;-77
2023/08/01 03:09:07;;;;;;;10.98;3.67;;;;;;;;;;5036625;28;20042;-77
2023/08/01 03:11:34;;;;;;;11.75;3.38;;;;;;;;;;5036690;28;20049;-77
2023/08/01 03:14:00;;;;;;;8.93;3.33;;;;;;;;;;5037193;28;20049;-77
2023/08/01 03:16:26;;;;;;;11.18;3.30;;;;;;;;;;5036525;28;20059;-77
2023/08/01 03:18:52;;;;;;;11.40;3.90;;;;;;;;;;5036640;28;20044;-77
2023/08/01 03:21:18;;;;;;;10.48;3.50;;;;;;;;;;5052390;28;20049;-77
2023/08/01 03:23:44;;;;;;;12.52;3.22;;;;;;;;;;5056273;28;20045;-78
2023/08/01 03:26:10;;;;;;;8.13;3.10;;;;;;;;;;5056387;28;20049;-78
2023/08/01 03:28:36;;;;;;;7.07;3.22;;;;;;;;;;5056144;28;20041;-78
2023/08/01 03:31:02;;;;;;;8.73;2.90;;;;;;;;;;5036332;28;20041;-78
2023/08/01 03:33:29;;;;;;;10.80;2.80;;;;;;;;;;5036130;28;20046;-78
2023/08/01 03:35:55;;;;;;;11.73;3.28;;;;;;;;;;5036370;28;20064;-78
2023/08/01 03:38:21;;;;;;;9.27;2.70;;;;;;;;;;5035831;28;20057;-78
2023/08/01 03:40:47;;;;;;;6.97;2.60;;;;;;;;;;5036144;28;20053;-78
2023/08/01 03:43:14;;;;;;;5.93;2.50;;;;;;;;;;5036010;28;20053;-78
2023/08/01 03:45:40;;;;;;;6.50;2.40;;;;;;;;;;5047916;28;20051;-78
2023/08/01 03:48:06;;;;;;;9.35;2.47;;;;;;;;;;5040044;28;20452;-78
2023/08/01 03:50:32;;;;;;;10.65;2.85;;;;;;;;;;5048929;28;20044;-78
2023/08/01 03:52:58;;;;;;;10.85;2.70;;;;;;;;;;5035805;28;20053;-78
2023/08/01 03:55:24;;;;;;;6.22;2.50;;;;;;;;;;5036152;28;20045;-78
2023/08/01 03:57:50;;;;;;;8.50;2.40;;;;;;;;;;5045075;28;20099;-78
2023/08/01 04:00:18;;;;;;;7.05;2.60;;;;;;;;;;5051028;28;20037;-78
2023/08/01 04:02:44;;;;;;;7.10;2.70;;;;;;;;;;5044086;28;20440;-78
2023/08/01 04:05:10;;;;;;;7.80;3.13;;;;;;;;;;5053412;28;20353;-78
2023/08/01 04:07:37;;;;;;;4.65;2.58;;;;;;;;;;5055591;28;20044;-78
2023/08/01 04:10:04;;;;;;;7.72;2.67;;;;;;;;;;5054050;28;20048;-78
2023/08/01 04:12:31;;;;;;;8.02;2.30;;;;;;;;;;5034901;28;20053;-78
2023/08/01 04:14:57;;;;;;;6.88;2.40;;;;;;;;;;5035540;28;20081;-78
2023/08/01 04:17:23;;;;;;;8.52;2.55;;;;;;;;;;5035734;28;20046;-78
2023/08/01 04:19:49;;;;;;;6.65;3.00;;;;;;;;;;5055223;28;20041;-78
2023/08/01 04:22:15;;;;;;;7.00;2.75;;;;;;;;;;5036803;28;20149;-78
2023/08/01 04:24:41;;;;;;;5.22;2.50;;;;;;;;;;5035404;28;20053;-77
2023/08/01 04:27:07;;;;;;;7.80;2.63;;;;;;;;;;5035361;28;20120;-77
2023/08/01 04:29:33;;;;;;;7.90;2.50;;;;;;;;;;5035877;28;20099;-77
2023/08/01 04:31:59;;;;;;;8.07;2.70;;;;;;;;;;5054935;28;20128;-79
2023/08/01 04:34:25;;;;;;;8.77;3.10;;;;;;;;;;5054590;28;20498;-78
2023/08/01 04:36:51;;;;;;;10.32;2.80;;;;;;;;;;5055496;28;20464;-78
2023/08/01 04:39:17;;;;;;;13.88;2.70;;;;;;;;;;5055059;28;20160;-78
2023/08/01 04:41:44;;;;;;;8.18;3.15;;;;;;;;;;5041821;28;20069;-78
2023/08/01 04:44:10;;;;;;;5.82;2.30;;;;;;;;;;5048971;28;20049;-78
2023/08/01 04:46:36;;;;;;;6.00;2.30;;;;;;;;;;5035273;28;20042;-78
2023/08/01 04:49:02;;;;;;;5.78;2.10;;;;;;;;;;5035160;28;20080;-78
2023/08/01 04:51:28;;;;;;;5.63;2.22;;;;;;;;;;5035100;28;20037;-77
2023/08/01 04:53:54;;;;;;;3.90;2.08;;;;;;;;;;5034863;28;20041;-77
2023/08/01 04:56:20;;;;;;;7.82;2.83;;;;;;;;;;5034992;28;20426;-77
2023/08/01 04:58:46;;;;;;;6.80;2.17;;;;;;;;;;5047142;28;20099;-77
2023/08/01 05:01:12;;;;;;;6.40;2.38;;;;;;;;;;5054626;28;20041;-78
2023/08/01 05:03:38;;;;;;;5.93;2.42;;;;;;;;;;5054518;28;20051;-77
2023/08/01 05:06:04;;;;;;;6.63;2.60;;;;;;;;;;5051162;28;20041;-77
2023/08/01 05:08:30;;;;;;;11.02;2.92;;;;;;;;;;5041781;28;20042;-77
2023/08/01 05:10:56;;;;;;;6.63;2.65;;;;;;;;;;5034075;28;20510;-78
2023/08/01 05:13:22;;;;;;;8.27;2.50;;;;;;;;;;5033975;28;20568;-78
2023/08/01 05:15:48;;;;;;;8.55;2.72;;;;;;;;;;5034898;28;20050;-78
2023/08/01 05:18:15;;;;;;;9.43;3.08;;;;;;;;;;5034679;28;20107;-78
2023/08/01 05:20:42;;;;;;;6.25;2.83;;;;;;;;;;5033202;28;20056;-79
2023/08/01 05:23:08;;;;;;;7.45;2.97;;;;;;;;;;5040141;28;20037;-78
2023/08/01 05:25:34;;;;;;;9.93;3.17;;;;;;;;;;5054249;28;20045;-78
2023/08/01 05:28:00;;;;;;;10.50;3.40;;;;;;;;;;5053942;28;20450;-78
2023/08/01 05:30:26;;;;;;;10.95;3.30;;;;;;;;;;5050928;28;20517;-78
2023/08/01 05:32:53;;;;;;;7.20;3.00;;;;;;;;;;5036769;28;20123;-78
2023/08/01 05:35:20;;;;;;;5.88;2.65;;;;;;;;;;5037066;28;20052;-78
2023/08/01 05:37:46;;;;;;;6.72;2.80;;;;;;;;;;5033123;28;20478;-78
2023/08/01 05:40:12;;;;;;;6.72;2.50;;;;;;;;;;5042651;28;20550;-78
2023/08/01 05:42:38;;;;;;;6.80;2.70;;;;;;;;;;5036460;28;20052;-79
2023/08/01 05:45:04;;;;;;;6.53;2.72;;;;;;;;;;5033524;28;20049;-78
2023/08/01 05:47:31;;;;;;;8.95;2.50;;;;;;;;;;5035153;28;20500;-78
2023/08/01 05:49:57;;;;;;;10.43;2.70;;;;;;;;;;5053196;28;20036;-78
2023/08/01 05:52:24;;;;;;;7.60;2.58;;;;;;;;;;5053605;28;20053;-78
2023/08/01 05:54:50;;;;;;;4.75;2.20;;;;;;;;;;5043248;28;20058;-78
2023/08/01 05:57:16;;;;;;;15.48;3.13;;;;;;;;;;5035740;28;20041;-80
2023/08/01 05:59:42;;;;;;;8.13;2.22;;;;;;;;;;5053594;28;20407;-80
2023/08/01 06:02:08;;;;;;;7.60;2.10;;;;;;;;;;5056964;28;20073;-81
2023/08/01 06:04:34;;;;;;;6.88;1.95;;;;;;;;;;5047929;28;20051;-81
2023/08/01 06:07:00;;;;;;;7.38;2.10;;;;;;;;;;5055276;28;20045;-80
2023/08/01 06:09:26;;;;;;;8.88;2.35;;;;;;;;;;5052899;28;20049;-80
2023/08/01 06:11:52;;;;;;;4.22;2.00;;;;;;;;;;5038275;28;20052;-79
2023/08/01 06:14:18;;;;;;;5.72;2.03;;;;;;;;;;5044142;28;20042;-79
2023/08/01 06:16:45;;;;;;;4.90;1.77;;;;;;;;;;5043932;28;20535;-80
2023/08/01 06:19:11;;;;;;;9.32;2.30;;;;;;;;;;5045076;28;20045;-80
2023/08/01 06:21:37;;;;;;;10.15;2.53;;;;;;;;;;5061109;28;20456;-79
2023/08/01 06:24:03;;;;;;;3.28;1.63;;;;;;;;;;5047661;28;20049;-79
2023/08/01 06:26:29;;;;;;;4.05;1.83;;;;;;;;;;5057478;28;20041;-80
2023/08/01 06:28:55;;;;;;;7.82;2.08;;;;;;;;;;5059760;28;20049;-80
2023/08/01 06:31:22;;;;;;;6.32;2.20;;;;;;;;;;5059532;28;20132;-79
2023/08/01 06:33:48;;;;;;;7.65;2.28;;;;;;;;;;5054215;28;20041;-79
2023/08/01 06:36:17;;;;;;;9.25;2.50;;;;;;;;;;5059174;28;20049;-79
2023/08/01 06:38:43;;;;;;;5.68;1.90;;;;;;;;;;5058147;28;20061;-80
2023/08/01 06:41:09;;;;;;;10.95;2.40;;;;;;;;;;5054242;28;20105;-80
2023/08/01 06:43:38;;;;;;;5.85;2.20;;;;;;;;;;5060780;28;20045;-79
2023/08/01 06:46:04;;;;;;;4.97;1.95;;;;;;;;;;5058954;28;20076;-79
2023/08/01 06:48:30;;;;;;;4.13;2.15;;;;;;;;;;5058512;28;20041;-79
2023/08/01 06:50:56;;;;;;;7.22;2.22;;;;;;;;;;5058071;28;20124;-78
2023/08/01 06:53:22;;;;;;;4.57;2.05;;;;;;;;;;5053382;28;20041;-77
2023/08/01 06:55:48;;;;;;;3.95;1.92;;;;;;;;;;5054839;28;20063;-79
2023/08/01 06:58:14;;;;;;;6.97;2.50;;;;;;;;;;5047799;28;20049;-80
2023/08/01 07:00:40;;;;;;;5.80;1.90;;;;;;;;;;5057862;28;20091;-79
2023/08/01 07:03:06;;;;;;;4.13;1.83;;;;;;;;;;5058769;28;20120;-80
2023/08/01 07:05:32;;;;;;;4.10;2.05;;;;;;;;;;5058183;28;20045;-80
2023/08/01 07:07:58;;;;;;;6.47;2.30;;;;;;;;;;5042111;28;20052;-80
2023/08/01 07:10:24;;;;;;;7.55;2.45;;;;;;;;;;5056773;28;20175;-80
2023/08/01 07:12:50;;;;;;;7.63;2.63;;;;;;;;;;5057085;28;20048;-84
2023/08/01 07:15:16;;;;;;;6.97;3.42;;;;;;;;;;5054692;28;20045;-82
2023/08/01 07:17:43;;;;;;;5.03;2.58;;;;;;;;;;5056441;28;20055;-80
2023/08/01 07:20:09;;;;;;;5.60;2.30;;;;;;;;;;5055677;28;20110;-81
2023/08/01 07:22:35;;;;;;;4.65;2.53;;;;;;;;;;5055483;28;20049;-80
2023/08/01 07:25:01;;;;;;;6.70;2.13;;;;;;;;;;5055153;28;20395;-81
2023/08/01 07:27:27;;;;;;;7.28;2.63;;;;;;;;;;5038788;28;20045;-81
2023/08/01 07:29:53;;;;;;;7.22;2.35;;;;;;;;;;5057539;28;20120;-81
2023/08/01 07:32:19;;;;;;;7.05;2.53;;;;;;;;;;5055970;28;20053;-81
2023/08/01 07:34:45;;;;;;;6.72;2.50;;;;;;;;;;5038285;28;20447;-80
2023/08/01 07:37:12;;;;;;;9.07;2.67;;;;;;;;;;5033855;28;20392;-78
2023/08/01 07:39:38;;;;;;;6.72;2.50;;;;;;;;;;5044584;28;20113;-79
2023/08/01 07:42:04;;;;;;;7.65;2.65;;;;;;;;;;5037032;28;20133;-79
2023/08/01 07:44:31;;;;;;;4.75;2.22;;;;;;;;;;5036332;28;20045;-80
2023/08/01 07:46:57;;;;;;;4.28;2.30;;;;;;;;;;5039570;28;20099;-79
2023/08/01 07:49:23;;;;;;;6.75;2.60;;;;;;;;;;5042892;28;20045;-80
2023/08/01 07:51:51;;;;;;;5.30;2.47;;;;;;;;;;5060444;28;20072;-81
2023/08/01 07:54:17;;;;;;;4.35;1.98;;;;;;;;;;5052946;28;20075;-81
2023/08/01 07:56:43;;;;;;;3.08;1.52;;;;;;;;;;5048650;28;20128;-79
2023/08/01 07:59:10;;;;;;;2.47;1.45;;;;;;;;;;5058496;28;20041;-79
2023/08/01 08:01:36;;;;;;;2.15;1.50;;;;;;;;;;5055445;28;20510;-79
2023/08/01 08:04:02;;;;;;;3.67;1.50;;;;;;;;;;5065201;28;20066;-79
2023/08/01 08:06:28;;;;;;;3.90;2.22;;;;;;;;;;5063471;28;20100;-79
2023/08/01 08:08:54;;;;;;;4.97;2.03;;;;;;;;;;5046777;28;20372;-80
2023/08/01 08:11:20;;;;;;;3.20;1.60;;;;;;;;;;5046989;28;20036;-80
2023/08/01 08:13:46;;;;;;;2.00;1.65;;;;;;;;;;5050097;28;20190;-80
2023/08/01 08:16:12;;;;;;;4.57;1.85;;;;;;;;;;5060801;28;20054;-80
2023/08/01 08:18:38;;;;;;;5.78;2.47;;;;;;;;;;5055531;28;20101;-80
2023/08/01 08:21:04;;;;;;;3.13;1.73;;;;;;;;;;5057519;28;20048;-80
2023/08/01 08:23:30;;;;;;;4.65;2.03;;;;;;;;;;5049523;28;20109;-80
2023/08/01 08:25:56;;;;;;;5.65;2.25;;;;;;;;;;5052190;28;20380;-80
2023/08/01 08:28:32;;;;;;;3.45;2.00;;;;;;;;;;5046347;28;20205;-80
2023/08/01 08:30:59;;;;;;;5.32;2.10;;;;;;;;;;5051902;28;20110;-79
2023/08/01 08:33:25;;;;;;;9.02;2.50;;;;;;;;;;5056241;28;20500;-79
2023/08/01 08:35:52;;;;;;;5.82;2.10;;;;;;;;;;5058077;28;20172;-80
2023/08/01 08:38:19;;;;;;;4.43;2.13;;;;;;;;;;5059420;28;20078;-79
2023/08/01 08:40:53;;;;;;;3.35;2.08;;;;;;;;;;5053955;28;20111;-79
2023/08/01 08:43:19;;;;;;;15.07;2.95;;;;;;;;;;5049035;28;20049;-78
2023/08/01 08:45:46;;;;;;;9.00;2.88;;;;;;;;;;5053089;28;20088;-78
2023/08/01 08:48:13;;;;;;;3.88;1.73;;;;;;;;;;5055201;28;20557;-78
2023/08/01 08:50:40;;;;;;;4.00;1.67;;;;;;;;;;5043385;28;20048;-79
2023/08/01 08:53:12;;;;;;;4.45;1.95;;;;;;;;;;5051168;28;20463;-78
2023/08/01 08:55:39;;;;;;;3.75;2.00;;;;;;;;;;5051916;28;20415;-79
2023/08/01 08:58:06;;;;;;;4.38;2.00;;;;;;;;;;5046864;28;20064;-80
2023/08/01 09:00:32;;;;;;;8.95;2.47;;;;;;;;;;5052076;28;20048;-80
2023/08/01 09:02:58;;;;;;;5.45;2.30;;;;;;;;;;5061624;28;20402;-80
2023/08/01 09:05:27;;;;;;;9.68;3.15;;;;;;;;;;5059882;28;20051;-82
2023/08/01 09:07:55;;;;;;;9.07;2.92;;;;;;;;;;5060339;28;20041;-81
2023/08/01 09:10:21;;;;;;;8.30;3.10;;;;;;;;;;5049060;28;20344;-80
2023/08/01 09:12:48;;;;;;;6.68;2.40;;;;;;;;;;5059952;28;20080;-80
2023/08/01 09:15:14;;;;;;;5.43;2.10;;;;;;;;;;5059046;28;20033;-81
2023/08/01 09:17:55;;;;;;;5.95;3.10;;;;;;;;;;5056537;28;20091;-81
2023/08/01 09:20:21;;;;;;;7.05;2.50;;;;;;;;;;5054628;28;20041;-80
2023/08/01 09:22:48;;;;;;;4.30;2.42;;;;;;;;;;5049332;28;20055;-80
2023/08/01 09:25:14;;;;;;;6.45;2.15;;;;;;;;;;5044865;28;20424;-80
2023/08/01 09:27:40;;;;;;;4.60;2.28;;;;;;;;;;5053993;28;20045;-80
2023/08/01 09:30:07;;;;;;;3.33;2.05;;;;;;;;;;5057904;28;20438;-80
2023/08/01 09:32:34;;;;;;;4.38;2.60;;;;;;;;;;5057923;28;20063;-80
2023/08/01 09:35:00;;;;;;;5.28;2.13;;;;;;;;;;5054063;28;20037;-79
2023/08/01 09:37:26;;;;;;;5.25;2.40;;;;;;;;;;5057517;28;20071;-80
2023/08/01 09:39:55;;;;;;;4.85;2.15;;;;;;;;;;5058611;28;20040;-79
2023/08/01 09:42:21;;;;;;;6.57;2.05;;;;;;;;;;5057971;28;20052;-79
2023/08/01 09:44:47;;;;;;;8.90;2.50;;;;;;;;;;5049960;28;20041;-79
2023/08/01 09:47:14;;;;;;;7.00;2.80;;;;;;;;;;5037751;28;20042;-84
2023/08/01 09:49:49;;;;;;;6.70;2.60;;;;;;;;;;5046241;28;20078;-82
2023/08/01 09:52:15;;;;;;;7.43;3.08;;;;;;;;;;5060419;28;20049;-80
2023/08/01 09:54:41;;;;;;;8.65;2.60;;;;;;;;;;5061318;28;20448;-81
2023/08/01 09:57:08;;;;;;;5.13;2.38;;;;;;;;;;5042601;28;20488;-82
2023/08/01 09:59:34;;;;;;;6.05;2.28;;;;;;;;;;5058014;28;20502;-79
2023/08/01 10:02:01;;;;;;;8.20;2.60;;;;;;;;;;5061422;28;20037;-79
2023/08/01 10:04:29;;;;;;;6.00;2.55;;;;;;;;;;5050291;28;20064;-79
2023/08/01 10:06:59;;;;;;;6.93;2.63;;;;;;;;;;5039227;28;20042;-79
2023/08/01 10:09:26;;;;;;;5.05;2.17;;;;;;;;;;5046699;28;20053;-81
2023/08/01 10:11:52;;;;;;;5.28;2.20;;;;;;;;;;5058792;28;20525;-79
2023/08/01 10:14:21;;;;;;;7.78;2.42;;;;;;;;;;5058646;28;20387;-81
2023/08/01 10:16:48;;;;;;;9.43;2.45;;;;;;;;;;5057658;28;20471;-79
2023/08/01 10:19:14;;;;;;;6.10;2.30;;;;;;;;;;5057658;28;20094;-79
2023/08/01 10:21:42;;;;;;;10.95;2.75;;;;;;;;;;5055013;28;20060;-79
2023/08/01 10:24:08;;;;;;;7.05;2.70;;;;;;;;;;5045161;28;20060;-79
2023/08/01 10:26:34;;;;;;;6.15;2.20;;;;;;;;;;5058449;28;20041;-78
2023/08/01 10:29:02;;;;;;;4.50;2.17;;;;;;;;;;5058640;28;20115;-78
2023/08/01 10:31:28;;;;;;;4.93;2.55;;;;;;;;;;5057451;28;20468;-78
2023/08/01 10:34:03;;;;;;;5.75;2.72;;;;;;;;;;5039145;28;20476;-79
2023/08/01 10:36:31;;;;;;;3.78;2.05;;;;;;;;;;5049604;28;20484;-78
2023/08/01 10:38:58;;;;;;;7.75;2.08;;;;;;;;;;5056609;28;20061;-78
2023/08/01 10:41:27;;;;;;;6.63;2.30;;;;;;;;;;5056447;28;20155;-80
2023/08/01 10:44:04;;;;;;;6.13;2.40;;;;;;;;;;5056173;28;20056;-79
2023/08/01 10:46:45;;;;;;;6.18;2.40;;;;;;;;;;5053623;28;20400;-79
2023/08/01 10:49:11;;;;;;;7.63;2.08;;;;;;;;;;5044329;28;20041;-78
2023/08/01 10:51:37;;;;;;;7.82;2.28;;;;;;;;;;5037626;28;20065;-78
2023/08/01 10:54:03;;;;;;;10.32;2.47;;;;;;;;;;5037628;28;20041;-78
2023/08/01 10:56:31;;;;;;;8.05;2.40;;;;;;;;;;5052897;28;20053;-78
2023/08/01 10:58:57;;;;;;;7.70;2.67;;;;;;;;;;5038501;28;20460;-78
2023/08/01 11:01:26;;;;;;;3.75;2.00;;;;;;;;;;5052282;28;20376;-79
2023/08/01 11:03:52;;;;;;;6.07;2.40;;;;;;;;;;5038544;28;20053;-79
2023/08/01 11:06:18;;;;;;;7.53;2.13;;;;;;;;;;5044487;28;20120;-80
2023/08/01 11:08:44;;;;;;;5.72;2.28;;;;;;;;;;5058289;28;20120;-79
2023/08/01 11:11:12;;;;;;;6.05;2.20;;;;;;;;;;5059197;28;20049;-79
2023/08/01 11:13:38;;;;;;;7.15;2.50;;;;;;;;;;5052823;28;20038;-79
2023/08/01 11:16:05;;;;;;;4.55;2.10;;;;;;;;;;5055682;28;20487;-79
2023/08/01 11:18:41;;;;;;;8.52;2.20;;;;;;;;;;5052242;28;20128;-78
2023/08/01 11:21:07;;;;;;;5.43;2.35;;;;;;;;;;5054735;28;20366;-80
2023/08/01 11:23:33;;;;;;;3.08;1.63;;;;;;;;;;5059574;28;20045;-79
2023/08/01 11:25:59;;;;;;;4.10;1.98;;;;;;;;;;5078352;28;20044;-80
2023/08/01 11:28:25;;;;;;;2.92;1.80;;;;;;;;;;5074500;28;20047;-79
2023/08/01 11:30:51;;;;;;;7.85;2.47;;;;;;;;;;5050634;28;20041;-78
2023/08/01 11:33:20;;;;;;;6.78;2.50;;;;;;;;;;5039257;28;20046;-79
2023/08/01 11:35:46;;;;;;;6.30;2.00;;;;;;;;;;5055199;28;20045;-79
2023/08/01 11:38:12;;;;;;;6.78;2.28;;;;;;;;;;5056221;28;20136;-77
2023/08/01 11:40:39;;;;;;;5.05;2.00;;;;;;;;;;5058116;28;20506;-79
2023/08/01 11:43:05;;;;;;;5.35;2.10;;;;;;;;;;5059546;28;20144;-78
2023/08/01 11:45:31;;;;;;;3.75;2.00;;;;;;;;;;5047720;28;20041;-79
2023/08/01 11:47:57;;;;;;;6.70;2.50;;;;;;;;;;5041649;28;20133;-78
2023/08/01 11:50:24;;;;;;;5.68;2.70;;;;;;;;;;5041586;28;20128;-79
2023/08/01 11:52:51;;;;;;;5.20;2.40;;;;;;;;;;5069851;28;20421;-78
2023/08/01 11:55:23;;;;;;;8.00;2.45;;;;;;;;;;5055075;28;20049;-79
2023/08/01 11:57:57;;;;;;;8.65;2.58;;;;;;;;;;5061041;28;20097;-79
2023/08/01 12:00:27;;;;;;;5.63;2.63;;;;;;;;;;5041281;28;20098;-79
2023/08/01 12:03:03;;;;;;;4.90;2.25;;;;;;;;;;5046044;28;20067;-78
2023/08/01 12:05:30;;;;;;;5.82;2.40;;;;;;;;;;5041939;28;20045;-78
2023/08/01 12:07:56;;;;;;;6.75;2.58;;;;;;;;;;5057478;28;20052;-78
2023/08/01 12:10:23;;;;;;;5.90;2.55;;;;;;;;;;5051803;28;20045;-78
2023/08/01 12:12:49;;;;;;;4.60;2.20;;;;;;;;;;5056025;28;20041;-78
2023/08/01 12:15:16;;;;;;;7.53;2.33;;;;;;;;;;5060444;28;20403;-78
2023/08/01 12:17:42;;;;;;;6.85;2.50;;;;;;;;;;5046748;28;20037;-78
2023/08/01 12:20:08;;;;;;;6.22;3.08;;;;;;;;;;5060168;28;20128;-78
2023/08/01 12:22:34;;;;;;;6.80;2.33;;;;;;;;;;5059684;28;20037;-78
2023/08/01 12:25:00;;;;;;;3.65;1.95;;;;;;;;;;5059641;28;20044;-79
2023/08/01 12:27:26;;;;;;;5.72;2.20;;;;;;;;;;5042191;28;20492;-79
2023/08/01 12:29:52;;;;;;;7.25;2.58;;;;;;;;;;5055810;28;20079;-78
2023/08/01 12:32:19;;;;;;;5.45;2.38;;;;;;;;;;5047795;28;20052;-81
2023/08/01 12:34:45;;;;;;;4.28;1.92;;;;;;;;;;5052961;28;20045;-78
2023/08/01 12:37:11;;;;;;;3.88;2.05;;;;;;;;;;5034818;28;20041;-78
2023/08/01 12:39:37;;;;;;;6.90;2.33;;;;;;;;;;5054917;28;20357;-79
2023/08/01 12:42:03;;;;;;;4.68;2.05;;;;;;;;;;5056281;28;20072;-79
2023/08/01 12:44:29;;;;;;;6.78;2.17;;;;;;;;;;5051920;28;20084;-79
2023/08/01 12:46:55;;;;;;;4.63;1.95;;;;;;;;;;5057983;28;20045;-79
2023/08/01 12:49:21;;;;;;;6.85;2.20;;;;;;;;;;5057476;28;20045;-78
2023/08/01 12:51:47;;;;;;;8.15;2.20;;;;;;;;;;5058809;28;20128;-78
2023/08/01 12:54:13;;;;;;;6.88;2.60;;;;;;;;;;5054434;28;20064;-78
2023/08/01 12:56:40;;;;;;;6.78;2.30;;;;;;;;;;5059047;28;20091;-78
2023/08/01 12:59:06;;;;;;;6.53;2.35;;;;;;;;;;5057107;28;20049;-78
2023/08/01 13:01:32;;;;;;;4.72;2.13;;;;;;;;;;5048498;28;20113;-78
2023/08/01 13:03:58;;;;;;;9.18;2.22;;;;;;;;;;5044528;28;20064;-78
2023/08/01 13:06:24;;;;;;;3.88;2.08;;;;;;;;;;5058303;28;20048;-78
2023/08/01 13:08:50;;;;;;;4.90;1.98;;;;;;;;;;5058737;28;20064;-78
2023/08/01 13:11:16;;;;;;;2.78;2.05;;;;;;;;;;5062072;28;20052;-78
2023/08/01 13:13:43;;;;;;;4.72;2.22;;;;;;;;;;5067133;28;20045;-79
2023/08/01 13:16:09;;;;;;;5.63;2.08;;;;;;;;;;5056307;28;20041;-79
2023/08/01 13:18:35;;;;;;;6.68;2.20;;;;;;;;;;5060050;28;20041;-78
2023/08/01 13:21:02;;;;;;;5.20;2.10;;;;;;;;;;5058912;28;20044;-79
2023/08/01 13:23:28;;;;;;;7.88;2.55;;;;;;;;;;5055209;28;20400;-79
2023/08/01 13:25:55;;;;;;;5.88;2.45;;;;;;;;;;5053240;28;20125;-80
2023/08/01 13:28:21;;;;;;;4.30;2.20;;;;;;;;;;5058379;28;20051;-79
2023/08/01 13:30:47;;;;;;;7.13;2.55;;;;;;;;;;5046329;28;20041;-78
2023/08/01 13:33:13;;;;;;;7.68;2.42;;;;;;;;;;5047925;28;20041;-79
2023/08/01 13:35:39;;;;;;;5.97;2.25;;;;;;;;;;5054277;28;20052;-79
2023/08/01 13:38:07;;;;;;;7.30;2.50;;;;;;;;;;5049689;28;20067;-79
2023/08/01 13:40:35;;;;;;;7.28;2.22;;;;;;;;;;5052062;28;20041;-79
2023/08/01 13:43:01;;;;;;;6.63;2.10;;;;;;;;;;5047923;28;20041;-79
2023/08/01 13:45:30;;;;;;;5.30;2.40;;;;;;;;;;5051935;28;20601;-78
2023/08/01 13:47:56;;;;;;;5.95;1.90;;;;;;;;;;5038496;28;20041;-79
2023/08/01 13:50:22;;;;;;;6.13;2.22;;;;;;;;;;5036969;28;20076;-82
2023/08/01 13:52:48;;;;;;;5.30;2.25;;;;;;;;;;5040682;28;20118;-79
2023/08/01 13:55:17;;;;;;;7.63;2.17;;;;;;;;;;5052808;28;20045;-80
2023/08/01 13:57:43;;;;;;;9.63;2.47;;;;;;;;;;5058956;28;20083;-79
2023/08/01 14:00:10;;;;;;;6.57;2.47;;;;;;;;;;5058903;28;20041;-79
2023/08/01 14:02:36;;;;;;;8.32;2.42;;;;;;;;;;5056461;28;20194;-78
2023/08/01 14:05:02;;;;;;;5.18;2.00;;;;;;;;;;5058286;28;20097;-79
2023/08/01 14:07:28;;;;;;;6.63;2.00;;;;;;;;;;5054732;28;20046;-78
2023/08/01 14:09:54;;;;;;;8.63;2.55;;;;;;;;;;5039438;28;20045;-77
2023/08/01 14:12:21;;;;;;;3.70;1.80;;;;;;;;;;5036008;28;20139;-78
2023/08/01 14:14:48;;;;;;;6.40;1.90;;;;;;;;;;5040862;28;20145;-78
2023/08/01 14:17:14;;;;;;;5.88;2.13;;;;;;;;;;5041895;28;20052;-78
2023/08/01 14:19:40;;;;;;;5.60;2.42;;;;;;;;;;5053433;28;20063;-78
2023/08/01 14:22:06;;;;;;;5.57;1.92;;;;;;;;;;5053592;28;20102;-78
2023/08/01 14:24:32;;;;;;;3.80;2.10;;;;;;;;;;5046253;28;20153;-78
2023/08/01 14:26:58;;;;;;;8.05;2.25;;;;;;;;;;5041708;28;20481;-78
2023/08/01 14:29:25;;;;;;;5.38;2.08;;;;;;;;;;5040417;28;20484;-78
2023/08/01 14:31:51;;;;;;;9.07;2.60;;;;;;;;;;5052162;28;20090;-78
2023/08/01 14:34:17;;;;;;;5.35;1.98;;;;;;;;;;5046407;28;20494;-79
2023/08/01 14:36:44;;;;;;;3.88;2.00;;;;;;;;;;5044336;28;20041;-78